Autoridad de Aeronautica Civil de Panamá


metar




ESTACIONES DESCRIPCION
MPTO (M) 041800Z 17008KT 9999 SCT017CB SCT090 30/25 Q1011 NOSIG RMK CB NE/NW=  
MPBO (M) 041800Z 03006KT 9999 SCT018 SCT090 Q1014 RMK PCPN DSNT SE  
MPCH (M) 032100Z 00000KT 9999 FEW020 BKN080 31/25 Q1013=  
MPSA (M) 041900Z 36008KT 9999 SCT010TCU SCT080 29/24 Q1010 RMK TCU/PCPN S W/NW=  
MPCE (M) 041900Z 01012KT 9000 SCT018CB BKN080 32/// Q1010 RMK HZ ALQDS =  
MPPN (M) 041900Z NIL=  
MPSM (M) 041400Z 00000KT(E) 9999 SCT030 BKN080 29/27 Q1012  
MPJE (M)  
MPPA (M) 041900Z 19005KT 9999 SCT017TCU SCT100 30/26 Q1009 RMK TCU E/NW=  
MPMG (M) 041800Z 19005KT 9000 SCT017CB 31/26 Q1010 NOSIG RMK CB NW-NE HZ ALQDS  
MPDA (M) 041900Z 16006KT 8000 SHRA SCT016TCU SCT120 28/26 Q1011 RWY WET RMK TCU N=  
MPVR (M) =  
MPWN FUERA DE SERVICIO  
MPOA (M)  
MPMF (M) =  
MPEJ (M) 041900Z NIL=  


 

CLIMATICAS

MPTO

 

03 AGOSTO 2020

 

PCPN (mm)

T° MAX

T° MIN

VIENTO MAX (KT)

HORA

VIENTO PREDOM (KT)

2.20

32.1

25.2

27012KT

2200Z

W06KT

 

 

CLIMATICAS

MPMG

03 - AGOSTO - 2020

PCPN (mm)

T° MAX

T° MIN

VIENTO MAX (KT)

HORA

VIENTO PREDOM (KT)

0.2

32.0

26.5

28005KT

2200Z

NW

 



Contador: 23730